createdAt,value
2023-05-15T00:02:02.024Z,11.32
2023-05-15T00:05:04.666Z,11.34
2023-05-15T00:08:06.477Z,11.34
2023-05-15T00:11:08.248Z,11.27
2023-05-15T00:14:11.308Z,11.25
2023-05-15T00:17:13.097Z,11.26
2023-05-15T00:20:14.768Z,11.35
2023-05-15T00:23:16.619Z,11.37
2023-05-15T00:26:18.282Z,11.40
2023-05-15T00:29:21.424Z,11.39
2023-05-15T00:32:23.221Z,11.52
2023-05-15T00:35:27.091Z,11.39
2023-05-15T00:38:28.928Z,11.38
2023-05-15T00:41:32.910Z,11.41
2023-05-15T00:44:38.317Z,11.29
2023-05-15T00:47:42.231Z,11.25
2023-05-15T00:50:44.454Z,11.21
2023-05-15T00:53:46.388Z,11.11
2023-05-15T00:56:49.717Z,10.93
2023-05-15T00:59:56.706Z,10.98
2023-05-15T01:02:59.907Z,10.85
2023-05-15T01:06:02.469Z,10.91
2023-05-15T01:09:09.504Z,10.77
2023-05-15T01:12:11.885Z,10.75
2023-05-15T01:15:15.147Z,10.57
2023-05-15T01:18:17.074Z,10.62
2023-05-15T01:21:50.853Z,10.48
2023-05-15T01:25:29.506Z,10.44
2023-05-15T01:28:39.327Z,10.27
2023-05-15T01:31:44.292Z,10.22
2023-05-15T01:34:57.413Z,10.23
2023-05-15T01:38:04.626Z,10.23
2023-05-15T01:41:13.778Z,10.12
2023-05-15T01:44:20.165Z,10.10
2023-05-15T01:47:27.628Z,10.08
2023-05-15T01:50:31.912Z,10.12
2023-05-15T01:53:36.129Z,10.12
2023-05-15T01:56:40.194Z,10.04
2023-05-15T01:59:44.812Z,9.97
2023-05-15T02:02:48.395Z,9.94
2023-05-15T02:05:53.561Z,9.93
2023-05-15T02:08:57.850Z,9.89
2023-05-15T02:12:01.011Z,10.01
2023-05-15T02:15:07.338Z,9.98
2023-05-15T02:18:12.109Z,9.84
2023-05-15T02:21:14.382Z,9.74
2023-05-15T02:24:17.242Z,9.79
2023-05-15T02:27:22.595Z,9.67
2023-05-15T02:30:38.288Z,9.52
2023-05-15T02:33:49.111Z,9.48
2023-05-15T02:36:55.280Z,9.45
2023-05-15T02:39:59.740Z,9.43
2023-05-15T02:43:02.181Z,9.38
2023-05-15T02:46:08.025Z,9.34
2023-05-15T02:49:15.609Z,9.31
2023-05-15T02:52:17.997Z,9.26
2023-05-15T02:55:20.062Z,9.20
2023-05-15T02:58:21.823Z,9.13
2023-05-15T03:01:25.227Z,9.15
2023-05-15T03:04:26.968Z,9.11
2023-05-15T03:07:28.889Z,9.04
2023-05-15T03:10:30.860Z,9.01
2023-05-15T03:13:35.965Z,9.04
2023-05-15T03:16:39.196Z,9.05
2023-05-15T03:19:41.184Z,9.02
2023-05-15T03:22:42.945Z,9.00
2023-05-15T03:25:44.798Z,8.89
2023-05-15T03:28:46.481Z,8.82
2023-05-15T03:31:50.972Z,8.85
2023-05-15T03:34:52.979Z,8.84
2023-05-15T03:37:57.898Z,8.85
2023-05-15T03:40:59.554Z,8.84
2023-05-15T03:44:01.408Z,8.83
2023-05-15T03:47:05.096Z,8.79
2023-05-15T03:50:07.551Z,8.77
2023-05-15T03:53:09.698Z,8.73
2023-05-15T03:56:11.448Z,8.77
2023-05-15T03:59:13.168Z,8.81
2023-05-15T04:02:16.240Z,8.88
2023-05-15T04:05:19.776Z,8.84
2023-05-15T04:08:21.710Z,8.87
2023-05-15T04:11:26.813Z,8.95
2023-05-15T04:14:28.592Z,8.96
2023-05-15T04:17:31.987Z,9.00
2023-05-15T04:20:34.095Z,8.99
2023-05-15T04:23:35.918Z,8.98
2023-05-15T04:26:37.865Z,9.06
2023-05-15T04:29:39.775Z,9.15
2023-05-15T04:32:46.338Z,9.21
2023-05-15T04:35:48.165Z,9.20
2023-05-15T04:38:50.023Z,9.20
2023-05-15T04:41:51.934Z,9.24
2023-05-15T04:44:53.806Z,9.26
2023-05-15T04:47:56.997Z,9.29
2023-05-15T04:50:58.986Z,9.29
2023-05-15T04:54:01.123Z,9.36
2023-05-15T04:57:06.671Z,9.42
2023-05-15T05:00:12.481Z,9.51
2023-05-15T05:03:15.886Z,9.59
2023-05-15T05:06:17.744Z,9.68
2023-05-15T05:09:20.128Z,9.76
2023-05-15T05:12:22.036Z,9.92
2023-05-15T05:15:27.398Z,10.05
2023-05-15T05:18:31.688Z,10.19
2023-05-15T05:21:34.198Z,10.50
2023-05-15T05:24:37.516Z,10.56
2023-05-15T05:27:39.425Z,10.66
2023-05-15T05:30:44.896Z,10.78
2023-05-15T05:33:49.502Z,10.91
2023-05-15T05:36:51.671Z,11.03
2023-05-15T05:39:56.455Z,11.15
2023-05-15T05:42:59.871Z,11.26
2023-05-15T05:46:02.268Z,11.39
2023-05-15T05:49:05.834Z,11.51
2023-05-15T05:52:08.203Z,11.58
2023-05-15T05:55:10.494Z,11.52
2023-05-15T05:58:24.138Z,11.49
2023-05-15T06:01:27.776Z,11.52
2023-05-15T06:04:32.384Z,11.54
2023-05-15T06:07:34.300Z,11.62
2023-05-15T06:10:36.566Z,11.77
2023-05-15T06:13:38.257Z,11.89
2023-05-15T06:16:40.198Z,12.07
2023-05-15T06:19:45.910Z,12.35
2023-05-15T06:22:47.840Z,12.63
2023-05-15T06:25:49.729Z,12.93
2023-05-15T06:28:55.747Z,12.93
2023-05-15T06:31:57.816Z,12.87
2023-05-15T06:35:03.294Z,12.96
2023-05-15T06:38:05.107Z,13.15
2023-05-15T06:41:06.902Z,13.27
2023-05-15T06:44:08.746Z,13.31
2023-05-15T06:47:10.611Z,13.52
2023-05-15T06:50:13.757Z,13.41
2023-05-15T06:53:17.623Z,13.57
2023-05-15T06:56:19.985Z,13.71
2023-05-15T06:59:21.714Z,13.99
2023-05-15T07:02:23.442Z,13.95
2023-05-15T07:05:27.743Z,13.85
2023-05-15T07:08:29.744Z,13.90
2023-05-15T07:11:33.648Z,13.72
2023-05-15T07:14:38.035Z,13.79
2023-05-15T07:17:39.998Z,13.77
2023-05-15T07:20:44.112Z,13.96
2023-05-15T07:23:46.030Z,13.92
2023-05-15T07:26:58.305Z,13.97
2023-05-15T07:30:01.821Z,14.00
2023-05-15T07:33:03.861Z,14.15
2023-05-15T07:36:07.802Z,14.23
2023-05-15T07:39:12.549Z,14.30
2023-05-15T07:42:14.509Z,14.33
2023-05-15T07:45:16.448Z,14.52
2023-05-15T07:48:19.668Z,14.72
2023-05-15T07:51:22.774Z,14.83
2023-05-15T07:54:24.648Z,14.81
2023-05-15T07:57:26.646Z,14.90
2023-05-15T08:00:28.520Z,14.95
2023-05-15T08:03:30.823Z,15.06
2023-05-15T08:06:39.853Z,15.24
2023-05-15T08:09:41.784Z,15.25
2023-05-15T08:12:46.520Z,15.28
2023-05-15T08:15:57.337Z,15.13
2023-05-15T08:19:03.747Z,15.11
2023-05-15T08:22:07.026Z,15.49
2023-05-15T08:25:09.478Z,15.63
2023-05-15T08:28:11.588Z,15.70
2023-05-15T08:31:13.474Z,15.86
2023-05-15T08:34:18.302Z,15.90
2023-05-15T08:37:21.483Z,16.01
2023-05-15T08:40:38.429Z,16.01
2023-05-15T08:43:43.507Z,16.08
2023-05-15T08:46:48.819Z,16.12
2023-05-15T08:50:04.875Z,16.34
2023-05-15T08:53:08.194Z,16.33
2023-05-15T08:56:10.263Z,16.43
2023-05-15T08:59:12.157Z,16.30
2023-05-15T09:02:15.640Z,16.45
2023-05-15T09:05:17.321Z,16.69
2023-05-15T09:08:23.045Z,16.45
2023-05-15T09:11:26.731Z,16.10
2023-05-15T09:14:28.606Z,16.58
2023-05-15T09:17:31.088Z,16.99
2023-05-15T09:20:35.310Z,17.27
2023-05-15T09:23:38.390Z,17.43
2023-05-15T09:26:40.296Z,16.96
2023-05-15T09:29:42.182Z,16.90
2023-05-15T09:32:44.360Z,17.08
2023-05-15T09:35:46.347Z,17.44
2023-05-15T09:38:49.755Z,17.45
2023-05-15T09:41:52.853Z,17.67
2023-05-15T09:44:54.564Z,17.49
2023-05-15T09:47:57.443Z,17.49
2023-05-15T09:51:02.432Z,17.71
2023-05-15T09:54:05.971Z,18.15
2023-05-15T09:57:09.381Z,17.97
2023-05-15T10:00:12.604Z,18.00
2023-05-15T10:03:15.027Z,18.18
2023-05-15T10:06:19.792Z,18.29
2023-05-15T10:09:29.493Z,18.91
2023-05-15T10:12:32.573Z,18.97
2023-05-15T10:15:34.918Z,18.80
2023-05-15T10:18:41.154Z,18.83
2023-05-15T10:21:44.385Z,18.64
2023-05-15T10:24:52.655Z,18.19
2023-05-15T10:27:55.330Z,18.57
2023-05-15T10:31:00.262Z,18.90
2023-05-15T10:34:02.870Z,19.26
2023-05-15T10:37:06.022Z,19.43
2023-05-15T10:40:13.163Z,19.42
2023-05-15T10:43:15.651Z,19.42
2023-05-15T10:46:17.821Z,19.38
2023-05-15T10:49:19.782Z,19.86
2023-05-15T10:52:24.213Z,20.39
2023-05-15T10:55:27.126Z,19.99
2023-05-15T11:01:49.573Z,20.63
2023-05-15T11:04:56.744Z,20.72
2023-05-15T11:08:28.623Z,19.98
2023-05-15T11:11:56.864Z,20.17
2023-05-15T11:15:17.928Z,20.62
2023-05-15T11:18:20.623Z,21.12
2023-05-15T11:21:22.532Z,21.02
2023-05-15T11:24:27.901Z,21.27
2023-05-15T11:27:35.568Z,21.42
2023-05-15T11:30:39.377Z,21.44
2023-05-15T11:33:41.690Z,20.34
2023-05-15T11:36:43.806Z,20.09
2023-05-15T11:40:07.080Z,19.85
2023-05-15T11:43:18.651Z,19.27
2023-05-15T11:46:22.059Z,19.65
2023-05-15T11:49:24.870Z,19.49
2023-05-15T11:52:27.889Z,19.23
2023-05-15T11:55:31.987Z,19.45
2023-05-15T11:58:35.228Z,19.75
2023-05-15T12:01:41.375Z,19.80
2023-05-15T12:04:43.321Z,20.14
2023-05-15T12:07:45.285Z,20.44
2023-05-15T12:10:47.563Z,20.21
2023-05-15T12:13:53.779Z,20.67
2023-05-15T12:17:02.740Z,20.27
2023-05-15T12:20:08.931Z,20.80
2023-05-15T12:23:10.960Z,20.74
2023-05-15T12:26:13.278Z,21.74
2023-05-15T12:29:16.690Z,21.62
2023-05-15T12:32:18.892Z,21.66
2023-05-15T12:35:21.065Z,21.05
2023-05-15T12:38:24.865Z,20.72
2023-05-15T12:41:27.822Z,20.63
2023-05-15T12:44:31.751Z,20.34
2023-05-15T12:47:33.599Z,20.46
2023-05-15T12:50:37.042Z,21.19
2023-05-15T12:53:40.185Z,20.64
2023-05-15T12:56:42.376Z,20.01
2023-05-15T12:59:45.764Z,20.49
2023-05-15T13:02:49.681Z,20.30
2023-05-15T13:05:52.280Z,20.13
2023-05-15T13:08:54.721Z,20.33
2023-05-15T13:11:59.177Z,20.19
2023-05-15T13:15:05.153Z,20.44
2023-05-15T13:18:11.566Z,21.20
2023-05-15T13:21:13.794Z,21.01
2023-05-15T13:24:15.971Z,20.40
2023-05-15T13:27:17.804Z,20.08
2023-05-15T13:30:21.257Z,17.81
2023-05-15T13:33:26.188Z,17.21
2023-05-15T13:36:28.060Z,16.11
2023-05-15T13:39:29.926Z,17.55
2023-05-15T13:42:31.870Z,18.25
2023-05-15T13:45:35.061Z,18.78
2023-05-15T13:48:36.984Z,19.15
2023-05-15T13:51:38.955Z,19.25
2023-05-15T13:54:41.014Z,19.11
2023-05-15T13:57:48.311Z,19.05
2023-05-15T14:00:51.785Z,19.15
2023-05-15T14:03:54.252Z,18.96
2023-05-15T14:06:56.490Z,18.81
2023-05-15T14:10:01.391Z,18.72
2023-05-15T14:13:03.534Z,18.84
2023-05-15T14:16:07.558Z,18.93
2023-05-15T14:19:09.431Z,18.89
2023-05-15T14:22:11.682Z,18.85
2023-05-15T14:25:15.910Z,19.38
2023-05-15T14:28:20.339Z,19.32
2023-05-15T14:31:23.542Z,19.57
2023-05-15T14:34:25.565Z,19.29
2023-05-15T14:37:28.326Z,19.21
2023-05-15T14:40:30.380Z,19.64
2023-05-15T14:43:32.355Z,20.47
2023-05-15T14:46:37.767Z,20.66
2023-05-15T14:49:40.332Z,20.79
2023-05-15T14:52:42.407Z,21.70
2023-05-15T14:55:44.258Z,22.00
2023-05-15T14:58:46.942Z,20.61
2023-05-15T15:01:50.287Z,20.46
2023-05-15T15:04:55.681Z,20.83
2023-05-15T15:07:59.773Z,20.97
2023-05-15T15:11:02.048Z,22.50
2023-05-15T15:14:03.900Z,22.83
2023-05-15T15:17:07.524Z,22.86
2023-05-15T15:20:11.501Z,22.29
2023-05-15T15:23:13.622Z,21.79
2023-05-15T15:26:15.664Z,20.32
2023-05-15T15:29:17.530Z,20.39
2023-05-15T15:32:20.947Z,19.69
2023-05-15T15:35:25.605Z,19.14
2023-05-15T15:38:27.619Z,19.25
2023-05-15T15:41:30.233Z,19.17
2023-05-15T15:44:33.250Z,19.28
2023-05-15T15:47:36.733Z,19.30
2023-05-15T15:50:38.624Z,19.06
2023-05-15T15:53:40.925Z,19.21
2023-05-15T15:56:42.929Z,18.95
2023-05-15T15:59:45.261Z,19.36
2023-05-15T16:02:48.642Z,19.35
2023-05-15T16:05:51.662Z,19.16
2023-05-15T16:08:53.458Z,19.10
2023-05-15T16:11:55.619Z,18.75
2023-05-15T16:15:00.162Z,18.52
2023-05-15T16:18:07.710Z,18.69
2023-05-15T16:21:09.684Z,18.69
2023-05-15T16:24:11.558Z,18.66
2023-05-15T16:27:13.436Z,18.47
2023-05-15T16:30:15.514Z,18.42
2023-05-15T16:33:19.034Z,18.53
2023-05-15T16:36:22.243Z,18.48
2023-05-15T16:39:25.564Z,18.21
2023-05-15T16:42:28.744Z,18.39
2023-05-15T16:45:30.699Z,18.51
2023-05-15T16:48:33.908Z,18.65
2023-05-15T16:51:36.043Z,18.23
2023-05-15T16:54:37.938Z,18.56
2023-05-15T16:57:41.691Z,18.68
2023-05-15T17:00:43.925Z,18.68
2023-05-15T17:03:49.658Z,18.62
2023-05-15T17:06:51.653Z,18.66
2023-05-15T17:09:54.905Z,18.99
2023-05-15T17:12:56.758Z,20.17
2023-05-15T17:15:59.015Z,20.72
2023-05-15T17:19:02.299Z,20.23
2023-05-15T17:22:04.212Z,19.62
2023-05-15T17:25:07.223Z,19.90
2023-05-15T17:28:09.279Z,19.87
2023-05-15T17:31:11.200Z,19.98
2023-05-15T17:34:14.693Z,18.68
2023-05-15T17:37:16.616Z,18.75
2023-05-15T17:40:18.723Z,18.93
2023-05-15T17:43:20.520Z,18.55
2023-05-15T17:46:22.325Z,18.46
2023-05-15T17:49:26.203Z,18.29
2023-05-15T17:52:28.516Z,18.16
2023-05-15T17:55:30.982Z,18.13
2023-05-15T17:58:32.728Z,18.14
2023-05-15T18:01:34.508Z,18.01
2023-05-15T18:04:39.799Z,18.00
2023-05-15T18:07:42.322Z,17.86
2023-05-15T18:10:44.507Z,17.70
2023-05-15T18:13:46.385Z,17.64
2023-05-15T18:16:48.111Z,17.50
2023-05-15T18:19:51.204Z,17.41
2023-05-15T18:22:55.612Z,17.09
2023-05-15T18:25:57.196Z,16.59
2023-05-15T18:29:02.018Z,16.28
2023-05-15T18:32:04.091Z,15.88
2023-05-15T18:35:10.912Z,15.90
2023-05-15T18:38:12.700Z,15.67
2023-05-15T18:41:14.460Z,15.61
2023-05-15T18:44:16.283Z,15.34
2023-05-15T18:47:18.339Z,15.25
2023-05-15T18:50:22.034Z,15.17
2023-05-15T18:53:26.342Z,15.24
2023-05-15T18:56:28.420Z,15.11
2023-05-15T18:59:30.240Z,15.07
2023-05-15T19:02:35.012Z,14.97
2023-05-15T19:05:38.339Z,14.77
2023-05-15T19:08:40.249Z,14.83
2023-05-15T19:11:46.638Z,14.71
2023-05-15T19:14:48.652Z,14.63
2023-05-15T19:17:50.688Z,14.63
2023-05-15T19:20:54.216Z,14.81
2023-05-15T19:23:56.100Z,14.97
2023-05-15T19:27:01.093Z,14.94
2023-05-15T19:30:07.703Z,15.08
2023-05-15T19:33:09.524Z,15.03
2023-05-15T19:36:13.187Z,15.01
2023-05-15T19:39:17.589Z,14.99
2023-05-15T19:42:19.427Z,14.94
2023-05-15T19:45:21.609Z,14.88
2023-05-15T19:48:23.606Z,14.83
2023-05-15T19:51:26.783Z,14.91
2023-05-15T19:54:28.813Z,15.09
2023-05-15T19:57:30.615Z,14.93
2023-05-15T20:00:35.323Z,14.92
2023-05-15T20:03:37.496Z,14.91
2023-05-15T20:06:41.108Z,14.72
2023-05-15T20:09:42.963Z,14.72
2023-05-15T20:12:45.316Z,14.83
2023-05-15T20:15:47.757Z,14.60
2023-05-15T20:18:54.588Z,14.57
2023-05-15T20:21:57.735Z,14.40
2023-05-15T20:24:59.547Z,14.24
2023-05-15T20:28:01.655Z,14.19
2023-05-15T20:31:03.849Z,14.26
2023-05-15T20:34:07.066Z,14.30
2023-05-15T20:37:10.259Z,14.23
2023-05-15T20:40:12.988Z,14.17
2023-05-15T20:43:14.826Z,14.12
2023-05-15T20:46:18.861Z,14.03
2023-05-15T20:49:20.946Z,14.14
2023-05-15T20:52:30.557Z,14.12
2023-05-15T20:55:32.648Z,14.18
2023-05-15T20:58:35.236Z,14.26
2023-05-15T21:01:37.210Z,14.17
2023-05-15T21:04:41.122Z,14.18
2023-05-15T21:07:44.406Z,14.13
2023-05-15T21:10:50.852Z,14.08
2023-05-15T21:13:52.716Z,14.04
2023-05-15T21:16:54.525Z,14.03
2023-05-15T21:19:58.438Z,13.95
2023-05-15T21:23:01.590Z,13.89
2023-05-15T21:26:03.853Z,14.00
2023-05-15T21:29:05.694Z,13.90
2023-05-15T21:32:07.868Z,13.98
2023-05-15T21:35:10.221Z,13.85
2023-05-15T21:38:13.294Z,13.82
2023-05-15T21:41:15.012Z,13.71
2023-05-15T21:44:17.007Z,13.70
2023-05-15T21:47:23.530Z,13.62
2023-05-15T21:50:26.141Z,13.61
2023-05-15T21:53:29.704Z,13.71
2023-05-15T21:56:51.939Z,13.90
2023-05-15T21:59:53.816Z,13.98
2023-05-15T22:02:57.693Z,14.02
2023-05-15T22:05:59.488Z,14.08
2023-05-15T22:09:02.844Z,14.10
2023-05-15T22:12:05.289Z,14.11
2023-05-15T22:15:11.003Z,14.12
2023-05-15T22:18:13.149Z,14.11
2023-05-15T22:21:15.425Z,13.96
2023-05-15T22:24:18.892Z,13.97
2023-05-15T22:27:20.603Z,13.97
2023-05-15T22:30:22.830Z,14.08
2023-05-15T22:33:24.995Z,13.97
2023-05-15T22:36:26.868Z,14.02
2023-05-15T22:39:29.977Z,13.97
2023-05-15T22:42:34.146Z,13.80
2023-05-15T22:45:36.191Z,13.68
2023-05-15T22:48:41.321Z,13.74
2023-05-15T22:51:43.015Z,13.83
2023-05-15T22:54:46.921Z,13.88
2023-05-15T22:57:48.882Z,13.84
2023-05-15T23:00:51.052Z,13.80
2023-05-15T23:03:52.786Z,13.91
2023-05-15T23:06:55.996Z,13.95
2023-05-15T23:09:59.116Z,13.90
2023-05-15T23:13:00.963Z,13.91
2023-05-15T23:16:02.869Z,13.89
2023-05-15T23:19:04.617Z,13.89
2023-05-15T23:22:06.500Z,13.88
2023-05-15T23:25:10.397Z,13.90
2023-05-15T23:28:12.156Z,13.85
2023-05-15T23:31:14.386Z,13.81
2023-05-15T23:34:16.365Z,13.83
2023-05-15T23:37:18.951Z,13.82
2023-05-15T23:40:22.313Z,13.82
2023-05-15T23:43:24.065Z,13.77
2023-05-15T23:46:25.905Z,13.75
2023-05-15T23:49:29.602Z,13.68
2023-05-15T23:52:51.289Z,13.66
2023-05-15T23:55:54.573Z,13.72
2023-05-15T23:58:56.392Z,13.70
